Tiempo atmosférico en la estación meteorológica de San Roque, Cádiz (1 m.)



Fecha
DESCASC
Temp. máxima en grados centígrados (hora)
DESCASC
Temp. mínima en grados centígrados (hora)
DESCASC
Temp. media en grados centígrados
DESCASC
Racha de viento máxima en m/sg (hora)
DESCASC
Velocidad máxima media en intervalos de 10 minutos(hora)
DESCASC
Precipitaciones diarias en mm
DESCASC
Precipitaciones de 00:00 a 06:00 en mm
DESCASC
Precipitaciones de 06:00 a 12:00 en mm
DESCASC
Precipitaciones de 12:00 a 18:00 en mm
DESCASC
Precipitaciones de 18:00 a 24:00 en mm
DESCASC
13-01-2021 16.5 (15:10) 2.6 (09:00) 9.5 10 (23:59) 6.94 (23:59) 0 0 0 0 0
12-01-2021 14.7 (17:00) 2.9 (07:20) 8.8 5.83 (03:40) 3.89 (03:40) 0 0 0 0 0
11-01-2021 13.7 (15:50) 4.4 (02:30) 9 7.22 (17:10) 5 (16:20) 3 0.4 2.6 0 0
10-01-2021 7.7 (13:40) 3.9 (04:10) 5.8 6.11 (07:00) 4.44 (07:00) 4.4 0 2 1.6 0.8
09-01-2021 12.7 (14:00) 5.9 (00:00) 9.3 15 (12:20) 9.17 (12:50) 3.4 0.2 0 0 3.2
08-01-2021 14.7 (14:40) 10.4 (00:00) 12.5 17.5 (18:40) 13.61 (19:20) 102.8 9.6 61.4 15.2 16.6
07-01-2021 12.5 (20:00) 10.8 (00:00) 11.7 15.83 (00:50) 9.17 (00:50) 34.2 6.4 7.4 2.8 17.6
06-01-2021 13.3 (11:50) 10.1 (00:00) 11.7 16.67 (20:40) 12.22 (20:40) 29.8 0.2 0 6 23.6
05-01-2021 13.6 (14:40) 4.9 (00:00) 9.3 9.17 (22:50) 7.22 (21:00) 0.8 0 0 0 0.8
04-01-2021 14.7 (15:40) 2.3 (00:00) 8.5 10 (13:50) 6.94 (13:10) 0 0 0 0 0
03-01-2021 14.4 (15:40) 1.9 (00:00) 8.1 8.89 (15:50) 5.56 (16:20) 0 0 0 0 0
02-01-2021 13.7 (15:20) 3.4 (00:00) 8.5 10.28 (16:00) 6.11 (16:30) 0 0 0 0 0
01-01-2021 14.3 (15:30) 6.7 (00:00) 10.5 13.89 (13:40) 8.61 (14:10) 0.6 0.6 0 0 0
31-12-2020 15.8 (14:20) 3.3 (00:00) 9.6 11.39 (14:40) 6.94 (14:40) 0 0 0 0 0
30-12-2020 16.1 (15:40) 5.5 (00:00) 10.8 7.5 (21:00) 4.44 (20:00) 0 0 0 0 0
29-12-2020 16.1 (14:20) 5.9 (00:00) 11 11.11 (14:20) 6.39 (14:20) 0 0 0 0 0
28-12-2020 17.9 (14:10) 9 (00:00) 13.4 16.11 (14:10) 10 (12:50) 0.4 0 0 0.4 0
27-12-2020 16.8 (16:30) 6 (00:00) 11.4 9.17 (00:40) 5.28 (00:20) 0 0 0 0 0
26-12-2020 16.8 (12:40) 13.4 (00:00) 15.1 13.06 (01:20) 10 (06:50) 0 0 0 0 0
25-12-2020 18.8 (13:20) 9.1 (00:00) 13.9 9.17 (23:40) 5.56 (22:50) 0 0 0 0 0
24-12-2020 20.3 (14:50) 9.4 (00:00) 14.8 7.22 (15:00) 3.89 (13:00) 0 0 0 0 0
23-12-2020 18.6 (17:20) 8.5 (00:00) 13.6 5.83 (08:30) 4.17 (08:50) 0 0 0 0 0
22-12-2020 18.4 (13:20) 11 (00:00) 14.7 7.5 (08:30) 5.56 (15:00) 0 0 0 0 0
21-12-2020 18.9 (14:40) 8.1 (00:00) 13.5 6.39 (13:10) 4.72 (12:50) 0 0 0 0 0
20-12-2020 17.8 (16:10) 10.8 (00:00) 14.3 11.39 (15:20) 7.5 (15:30) 0.4 0.4 0 0 0
19-12-2020 14 (15:50) 9.7 (00:00) 11.8 5 (07:50) 3.33 (04:20) 1 0 0 0.8 0.2

Gráficas

Temp. máximas Temp. mínimas Temp. medias Precipitaciones Rachas de viento máximas Velocidades máximas media en intervalos de 10 minutos

Datos horarios

Fecha y hora oficial Temperatura (ºC) Velocidad del viento (km/h) Dirección del viento Racha (km/h) Dirección de racha Precipitación (mm) Presión (hPa) Tendencia (hPa) Humedad (%)
2021-01-17 23:00:00 8.6 11 Noroeste 17 Norte 0 -- -- 95
2021-01-17 22:00:00 9.1 7 Noroeste 13 Noroeste 0 -- -- 94
2021-01-17 21:00:00 9.9 9 Noroeste 11 Noroeste 0 -- -- 92
2021-01-17 20:00:00 11 6 Oeste 9 Oeste 0 -- -- 89
2021-01-17 19:00:00 13 3 Oeste 6 Sudoeste 0 -- -- 82
2021-01-17 18:00:00 15.3 5 Sudoeste 7 Sudoeste 0 -- -- 79
2021-01-17 17:00:00 15.6 3 Sudeste 9 Este 0 -- -- 77
2021-01-17 16:00:00 15.8 3 Este 6 Este 0 -- -- 79
2021-01-17 15:00:00 15.7 4 Este 8 Este 0 -- -- 79
2021-01-17 14:00:00 15 4 Nordeste 12 Nordeste 0 -- -- 81
2021-01-17 13:00:00 15.7 5 Nordeste 11 Este 0 -- -- 78
2021-01-17 12:00:00 15.2 5 Este 14 Nordeste 0 -- -- 80
2021-01-17 11:00:00 13.2 7 Nordeste 15 Nordeste 0 -- -- 83
2021-01-17 10:00:00 9.8 5 Norte 16 Norte 0 -- -- 87
2021-01-17 09:00:00 8.2 9 Noroeste 16 Noroeste 0 -- -- 90
2021-01-17 08:00:00 7.4 10 Noroeste 18 Norte 0 -- -- 89
2021-01-17 07:00:00 7.7 10 Noroeste 19 Noroeste 0 -- -- 87
2021-01-17 06:00:00 8.1 10 Noroeste 18 Norte 0 -- -- 87
2021-01-17 05:00:00 8.5 10 Noroeste 15 Noroeste 0 -- -- 85
2021-01-17 04:00:00 8.8 8 Norte 15 Nordeste 0 -- -- 86
2021-01-17 03:00:00 8.3 8 Norte 15 Noroeste 0 -- -- 87
2021-01-17 02:00:00 8.9 8 Noroeste 21 Este 0 -- -- 81
2021-01-17 01:00:00 13.3 13 Nordeste 22 Nordeste 0 -- -- 77
2021-01-17 00:00:00 13.2 12 Nordeste 21 Nordeste 0 -- -- 80
2021-01-16 23:00:00 13.2 11 Nordeste 27 Nordeste 0 -- -- 83
2021-01-16 22:00:00 13.6 15 Nordeste 28 Nordeste 0 -- -- 83
2021-01-16 21:00:00 13.7 12 Nordeste 26 Nordeste 0 -- -- 84
2021-01-16 20:00:00 13.8 7 Este 26 Este 0 -- -- 81
2021-01-16 19:00:00 14.3 9 Nordeste 21 Este 0 -- -- 77
2021-01-16 18:00:00 16 10 Nordeste 22 Este 0 -- -- 71
2021-01-16 17:00:00 17.4 7 Sudeste 24 Sur 0 -- -- 59
2021-01-16 16:00:00 17.6 17 Sur 24 Sur 0 -- -- 63
2021-01-16 15:00:00 20 13 Sudoeste 24 Sur 0 -- -- 45
2021-01-16 14:00:00 19.2 13 Oeste 21 Sudoeste 0 -- -- 40
2021-01-16 13:00:00 18.4 11 Oeste 20 Oeste 0 -- -- 41
2021-01-16 12:00:00 16.2 10 Oeste 25 Oeste 0 -- -- 47
2021-01-16 11:00:00 13.3 19 Oeste 30 Oeste 0 -- -- 55
2021-01-16 10:00:00 10.8 14 Oeste 26 Oeste 0 -- -- 61
2021-01-16 09:00:00 8.8 17 Oeste 26 Oeste 0 -- -- 67
2021-01-16 08:00:00 8.9 12 Oeste 33 Oeste 0 -- -- 69
2021-01-16 07:00:00 9.2 18 Oeste 32 Oeste 0 -- -- 71
2021-01-16 06:00:00 8.7 20 Oeste 28 Oeste 0 -- -- 75
2021-01-16 05:00:00 9 18 Oeste 32 Noroeste 0 -- -- 76
2021-01-16 04:00:00 9.7 19 Oeste 35 Noroeste 0 -- -- 73
2021-01-16 03:00:00 9.9 21 Oeste 36 Noroeste 0 -- -- 73
2021-01-16 02:00:00 9.5 18 Oeste 33 Oeste 0 -- -- 74
2021-01-16 01:00:00 9.3 22 Oeste 35 Oeste 0 -- -- 74
2021-01-16 00:00:00 9.9 15 Noroeste 33 Noroeste 0 -- -- 72
2021-01-15 23:00:00 10 19 Noroeste 33 Noroeste 0 -- -- 72
2021-01-15 22:00:00 10.1 18 Noroeste 30 Noroeste 0 -- -- 72
2021-01-15 21:00:00 10.8 13 Noroeste 33 Oeste 0 -- -- 71
2021-01-15 20:00:00 11.2 23 Oeste 36 Oeste 0 -- -- 70
2021-01-15 19:00:00 12 26 Oeste 39 Oeste 0 -- -- 68
2021-01-15 18:00:00 14.5 24 Oeste 39 Oeste 0 -- -- 59
2021-01-15 17:00:00 16.1 24 Oeste 40 Oeste 0 -- -- 51
2021-01-15 16:00:00 16.9 26 Oeste 45 Oeste 0 -- -- 48
2021-01-15 15:00:00 16.9 27 Oeste 45 Oeste 0 -- -- 46
2021-01-15 14:00:00 16.7 23 Oeste 41 Oeste 0 -- -- 49
2021-01-15 13:00:00 15.3 21 Oeste 42 Oeste 0 -- -- 51
2021-01-15 12:00:00 14.1 29 Oeste 44 Oeste 0 -- -- 53
2021-01-15 11:00:00 12.4 17 Oeste 39 Oeste 0 -- -- 60
2021-01-15 10:00:00 10.3 19 Noroeste 32 Oeste 0 -- -- 70
2021-01-15 09:00:00 8.7 18 Oeste 31 Oeste 0 -- -- 75
2021-01-15 08:00:00 9.1 20 Oeste 32 Oeste 0 -- -- 72
2021-01-15 07:00:00 9.1 19 Oeste 33 Oeste 0 -- -- 72
2021-01-15 06:00:00 9.1 19 Oeste 33 Oeste 0 -- -- 72
2021-01-15 05:00:00 8.8 21 Oeste 35 Oeste 0 -- -- 74
2021-01-15 04:00:00 8.6 23 Oeste 36 Oeste 0 -- -- 76
2021-01-15 03:00:00 8.9 19 Oeste 35 Oeste 0 -- -- 73
2021-01-15 02:00:00 8.8 25 Oeste 39 Oeste 0 -- -- 76
2021-01-15 01:00:00 8.6 27 Oeste 39 Oeste 0 -- -- 80
2021-01-15 00:00:00 8.9 30 Oeste 42 Oeste 0 -- -- 80
2021-01-14 23:00:00 9.1 27 Oeste 45 Oeste 0 -- -- 86
2021-01-14 22:00:00 9.2 23 Oeste 36 Oeste 0 -- -- 87
2021-01-14 21:00:00 9.7 27 Oeste 39 Oeste 0 -- -- 83
2021-01-14 20:00:00 10.8 22 Oeste 37 Oeste 0 -- -- 80
2021-01-14 19:00:00 11.8 13 Oeste 28 Oeste 0 -- -- 76
2021-01-14 18:00:00 13.6 18 Oeste 43 Oeste 0 -- -- 68
2021-01-14 17:00:00 14.6 21 Oeste 44 Oeste 0 -- -- 62
2021-01-14 16:00:00 15.1 18 Oeste 49 Oeste 0 -- -- 57
2021-01-14 15:00:00 15.1 26 Oeste 46 Oeste 0 -- -- 51
2021-01-14 14:00:00 14.9 31 Oeste 51 Oeste 0 -- -- 56
2021-01-14 13:00:00 14.7 27 Oeste 50 Oeste 0 -- -- 60
2021-01-14 12:00:00 13.7 36 Oeste 52 Oeste 0 -- -- 60
2021-01-14 11:00:00 12.8 27 Oeste 42 Oeste 0 -- -- 70
2021-01-14 10:00:00 10.5 18 Oeste 29 Oeste 0 -- -- 75
2021-01-14 09:00:00 8.6 18 Oeste 31 Oeste 0 -- -- 80
2021-01-14 08:00:00 8.4 20 Oeste 31 Oeste 0 -- -- 78
2021-01-14 07:00:00 9.2 22 Oeste 35 Oeste 0 -- -- 72
2021-01-14 06:00:00 8.9 17 Oeste 29 Oeste 0 -- -- 79
2021-01-14 05:00:00 8.5 14 Oeste 26 Oeste 0 -- -- 78
2021-01-14 04:00:00 8.9 16 Oeste 35 Oeste 0 -- -- 74
2021-01-14 03:00:00 9.1 21 Oeste 36 Oeste 0 -- -- 68
2021-01-14 02:00:00 9 24 Oeste 37 Oeste 0 -- -- 63
2021-01-14 01:00:00 9 24 Oeste 42 Oeste 0 -- -- 64
2021-01-14 00:00:00 8.2 25 Oeste 36 Oeste 0 -- -- 70
2021-01-13 23:00:00 8.2 22 Oeste 34 Oeste 0 -- -- 74
2021-01-13 22:00:00 8.9 14 Oeste 24 Oeste 0 -- -- 74
2021-01-13 21:00:00 9.6 17 Oeste 26 Oeste 0 -- -- 72
2021-01-13 20:00:00 10.1 18 Oeste 25 Oeste 0 -- -- 72
2021-01-13 19:00:00 11.4 17 Oeste 25 Oeste 0 -- -- 69
2021-01-13 18:00:00 14 15 Oeste 27 Oeste 0 -- -- 59
2021-01-13 17:00:00 15.7 16 Oeste 32 Oeste 0 -- -- 48
2021-01-13 16:00:00 16.2 21 Oeste 31 Oeste 0 -- -- 45
2021-01-13 15:00:00 16.4 18 Oeste 29 Oeste 0 -- -- 48
2021-01-13 14:00:00 15.9 14 Oeste 27 Oeste 0 -- -- 48
2021-01-13 13:00:00 14.6 18 Oeste 28 Oeste 0 -- -- 53
2021-01-13 12:00:00 11.7 6 Noroeste 12 Oeste 0 -- -- 75
2021-01-13 11:00:00 7.3 8 Noroeste 12 Noroeste 0 -- -- 83
2021-01-13 10:00:00 4.6 7 Noroeste 17 Noroeste 0 -- -- 90
2021-01-13 09:00:00 2.6 11 Noroeste 22 Noroeste 0 -- -- 91
2021-01-13 08:00:00 2.9 15 Noroeste 23 Noroeste 0 -- -- 91
2021-01-13 07:00:00 2.8 13 Noroeste 22 Noroeste 0 -- -- 94
2021-01-13 06:00:00 3.3 15 Noroeste 26 Noroeste 0 -- -- 93
2021-01-13 05:00:00 3.5 15 Noroeste 22 Noroeste 0 -- -- 94
2021-01-13 04:00:00 3.9 13 Noroeste 23 Noroeste 0 -- -- 93
2021-01-13 03:00:00 4.4 14 Noroeste 22 Noroeste 0 -- -- 93
2021-01-13 02:00:00 4.7 13 Noroeste 22 Noroeste 0 -- -- 93
2021-01-13 01:00:00 5.4 14 Noroeste 21 Noroeste 0 -- -- 91
2021-01-13 00:00:00 5.6 13 Noroeste 21 Noroeste 0 -- -- 91
2021-01-12 23:00:00 6 13 Noroeste 20 Norte 0 -- -- 91
2021-01-12 22:00:00 6.8 12 Noroeste 18 Noroeste 0 -- -- 88
2021-01-12 21:00:00 7.2 10 Noroeste 14 Noroeste 0 -- -- 88
2021-01-12 20:00:00 7.8 8 Noroeste 9 Noroeste 0 -- -- 86
2021-01-12 19:00:00 10.3 6 Noroeste 9 Sur 0 -- -- 75
2021-01-12 18:00:00 14.2 5 Sur 10 Sudeste 0 -- -- 62
2021-01-12 17:00:00 14.7 7 Sudeste 11 Sudeste 0 -- -- 60
2021-01-12 16:00:00 14.5 7 Sudeste 12 Sudeste 0 -- -- 61
2021-01-12 15:00:00 14.1 10 Sudeste 14 Sudeste 0 -- -- 60
2021-01-12 14:00:00 13.8 9 Este 13 Este 0 -- -- 63
2021-01-12 13:00:00 12.6 4 Este 11 Noroeste 0 -- -- 63
2021-01-12 12:00:00 10.4 6 Noroeste 16 Norte 0 -- -- 77
2021-01-12 11:00:00 7.7 9 Norte 17 Noroeste 0 -- -- 84
2021-01-12 10:00:00 5.4 9 Norte 14 Norte 0 -- -- 92
2021-01-12 09:00:00 4 9 Noroeste 17 Noroeste 0 -- -- 96
2021-01-12 08:00:00 3.3 11 Noroeste 15 Noroeste 0 -- -- 96
2021-01-12 07:00:00 3.2 4 Noroeste 15 Noroeste 0 -- -- 96
2021-01-12 06:00:00 4 12 Noroeste 20 Noroeste 0 -- -- 96
2021-01-12 05:00:00 4.1 3 Noroeste 14 Noroeste 0 -- -- 96
2021-01-12 04:00:00 4.4 8 Noroeste 21 Noroeste 0 -- -- 96
2021-01-12 03:00:00 4.5 11 Noroeste 16 Noroeste 0 -- -- 96
2021-01-12 02:00:00 5 7 Noroeste 15 Noroeste 0 -- -- 95
2021-01-12 01:00:00 4.9 3 Noroeste 12 Noroeste 0 -- -- 94
2021-01-12 00:00:00 5.9 7 Noroeste 14 Noroeste 0 -- -- 94
2021-01-11 23:00:00 6.4 9 Noroeste 13 Noroeste 0 -- -- 92
2021-01-11 22:00:00 7.4 5 Noroeste 13 Oeste 0 -- -- 88
2021-01-11 21:00:00 8 6 Noroeste 16 Oeste 0 -- -- 87
2021-01-11 20:00:00 8.6 10 Oeste 17 Oeste 0 -- -- 84
2021-01-11 19:00:00 9.5 12 Oeste 23 Oeste 0 -- -- 78
2021-01-11 18:00:00 11.7 15 Oeste 26 Sudoeste 0 -- -- 71
2021-01-11 17:00:00 13.2 15 Oeste 25 Sudoeste 0 -- -- 64
2021-01-11 16:00:00 13.7 12 Sudoeste 19 Sudoeste 0 -- -- 64
2021-01-11 15:00:00 12.8 6 Noroeste 13 Oeste 0 -- -- 69
2021-01-11 14:00:00 11.4 6 Oeste 18 Noroeste 0 -- -- 76
2021-01-11 13:00:00 10.8 8 Oeste 19 Oeste 0 -- -- 84
2021-01-11 12:00:00 9.1 8 Noroeste 18 Oeste 0 -- -- 98
2021-01-11 11:00:00 7.5 4 Noroeste 13 Noroeste 0 -- -- 100
2021-01-11 10:00:00 6.3 6 Noroeste 12 Noroeste 0 -- -- 100
2021-01-11 09:00:00 5.1 5 Noroeste 15 Noroeste 0 -- -- 100
2021-01-11 08:00:00 4.9 11 Noroeste 17 Noroeste 0.2 -- -- 100
2021-01-11 07:00:00 5.2 4 Oeste 18 Noroeste 2.4 -- -- 100
2021-01-11 06:00:00 4.9 9 Noroeste 16 Noroeste 0.4 -- -- 99
2021-01-11 05:00:00 4.8 9 Noroeste 15 Noroeste 0 -- -- 99
2021-01-11 04:00:00 4.8 10 Noroeste 19 Noroeste 0 -- -- 99
2021-01-11 03:00:00 4.5 9 Noroeste 18 Norte 0 -- -- 99
2021-01-11 02:00:00 4.6 7 Noroeste 12 Noroeste 0 -- -- 98
2021-01-11 01:00:00 4.7 8 Noroeste 13 Noroeste 0 -- -- 98
2021-01-11 00:00:00 4.8 5 Noroeste 9 Noroeste 0 -- -- 97
2021-01-10 23:00:00 5.3 6 Noroeste 10 Noroeste 0 -- -- 97
2021-01-10 22:00:00 6 5 Norte 9 Norte 0 -- -- 96
2021-01-10 21:00:00 6.3 4 Norte 9 Noroeste 0 -- -- 96
2021-01-10 20:00:00 6.6 4 Noroeste 10 Este 0.8 -- -- 94
2021-01-10 19:00:00 7 6 Este 15 Este 0 -- -- 94
2021-01-10 18:00:00 6.9 3 Norte 4 Oeste 0.8 -- -- 94
2021-01-10 17:00:00 7.2 3 Noroeste 7 Oeste 0.2 -- -- 92
2021-01-10 16:00:00 7.5 3 Noroeste 6 Oeste 0.2 -- -- 93
2021-01-10 15:00:00 7.7 4 Sudoeste 12 Sudoeste 0.4 -- -- 93
2021-01-10 14:00:00 7.7 8 Oeste 12 Oeste 0 -- -- 93
2021-01-10 13:00:00 7.5 6 Noroeste 13 Norte 0 -- -- 97
2021-01-10 12:00:00 7.1 3 Noroeste 10 Noroeste 0 -- -- 100
2021-01-10 11:00:00 6.3 4 Noroeste 15 Oeste 0 -- -- 100
2021-01-10 10:00:00 4.7 5 Noroeste 12 Norte 0 -- -- 100
2021-01-10 09:00:00 4.1 6 Noroeste 11 Noroeste 0 -- -- 100
2021-01-10 08:00:00 4.7 6 Noroeste 17 Sur 0.2 -- -- 100
2021-01-10 07:00:00 5.5 16 Sudoeste 22 Sur 1.8 -- -- 100
2021-01-10 06:00:00 4.1 10 Noroeste 16 Noroeste 0 -- -- 100
2021-01-10 05:00:00 4.2 9 Noroeste 15 Norte 0 -- -- 100
2021-01-10 04:00:00 4 9 Noroeste 15 Noroeste 0 -- -- 99
2021-01-10 03:00:00 5 7 Noroeste 13 Noroeste 0 -- -- 98
2021-01-10 02:00:00 5.5 4 Noroeste 9 Noroeste 0 -- -- 98
2021-01-10 01:00:00 6.1 3 Noroeste 9 Noroeste 0 -- -- 97
2021-01-10 00:00:00 6.6 6 Noroeste 9 Norte 0 -- -- 97
2021-01-09 23:00:00 6.5 3 Noroeste 5 Noroeste 0 -- -- 96
2021-01-09 22:00:00 7.7 3 Norte 21 Oeste 1.2 -- -- 96
2021-01-09 21:00:00 7.9 3 Noroeste 6 Noroeste 0 -- -- 95
2021-01-09 20:00:00 8.2 0 Calma 18 Noroeste 2 -- -- 92
2021-01-09 19:00:00 8.5 8 Noroeste 18 Oeste 0 -- -- 89
2021-01-09 18:00:00 8.8 12 Sudoeste 21 Sur 0 -- -- 84
2021-01-09 17:00:00 9.8 12 Sudoeste 25 Sudoeste 0 -- -- 77
2021-01-09 16:00:00 10.2 21 Sudoeste 37 Sudoeste 0 -- -- 70
2021-01-09 15:00:00 11.8 23 Sudoeste 42 Sudoeste 0 -- -- 59
2021-01-09 14:00:00 12.7 27 Oeste 50 Oeste 0 -- -- 54
2021-01-09 13:00:00 11.8 32 Oeste 54 Sudoeste 0 -- -- 56
2021-01-09 12:00:00 11 21 Oeste 34 Sudoeste 0 -- -- 76
2021-01-09 11:00:00 9.3 11 Oeste 25 Oeste 0 -- -- 85
2021-01-09 10:00:00 7.4 9 Oeste 21 Oeste 0 -- -- 89
2021-01-09 09:00:00 6.6 9 Oeste 18 Noroeste 0 -- -- 91
2021-01-09 08:00:00 7.2 6 Oeste 26 Oeste 0 -- -- 92
2021-01-09 07:00:00 7.8 15 Oeste 31 Oeste 0 -- -- 93
2021-01-09 06:00:00 8.1 10 Oeste 28 Noroeste 0 -- -- 95
2021-01-09 05:00:00 8.7 15 Oeste 36 Oeste 0 -- -- 95
2021-01-09 04:00:00 9.6 17 Oeste 28 Oeste 0.2 -- -- 96
2021-01-09 03:00:00 10.2 13 Oeste 23 Oeste 0 -- -- 98
2021-01-09 02:00:00 10.4 11 Oeste 18 Oeste 0 -- -- 99
2021-01-09 01:00:00 10.4 11 Noroeste 28 Oeste 0 -- -- 99
2021-01-09 00:00:00 10.5 9 Oeste 32 Oeste 0 -- -- 99
2021-01-08 23:00:00 10.8 13 Oeste 44 Sudoeste 0 -- -- 100
2021-01-08 22:00:00 12.8 26 Sudoeste 44 Sudoeste 1.2 -- -- 99
2021-01-08 21:00:00 14.4 4 Sur 63 Sudeste 5.4 -- -- 100
2021-01-08 20:00:00 14.3 44 Este 63 Este 7.8 -- -- 100
2021-01-08 19:00:00 14.3 46 Este 63 Este 2.2 -- -- 100
2021-01-08 18:00:00 14.5 46 Sudeste 59 Sudeste 1.8 -- -- 100
2021-01-08 17:00:00 14.4 30 Este 41 Este 1.4 -- -- 100
2021-01-08 16:00:00 14.7 25 Este 42 Este 0.8 -- -- 100
2021-01-08 15:00:00 14.6 33 Sudeste 43 Este 1 -- -- 100
2021-01-08 14:00:00 14.3 28 Este 39 Este 3.2 -- -- 100
2021-01-08 13:00:00 12.2 8 Norte 55 Sudeste 7 -- -- 100
2021-01-08 12:00:00 13.7 14 Sudeste 51 Este 9.2 -- -- 100
2021-01-08 11:00:00 13.2 26 Este 53 Este 19 -- -- 100
2021-01-08 10:00:00 12.8 19 Nordeste 38 Nordeste 14.2 -- -- 100
2021-01-08 09:00:00 12.7 21 Nordeste 45 Nordeste 8.4 -- -- 100
2021-01-08 08:00:00 12.6 23 Nordeste 45 Nordeste 7.4 -- -- 100
2021-01-08 07:00:00 12.3 22 Nordeste 43 Nordeste 3.2 -- -- 100
2021-01-08 06:00:00 12.2 29 Nordeste 46 Nordeste 4.6 -- -- 99
2021-01-08 05:00:00 12.3 23 Nordeste 49 Nordeste 2.2 -- -- 99
2021-01-08 04:00:00 12.1 31 Nordeste 48 Nordeste 0.4 -- -- 98
2021-01-08 03:00:00 11.9 27 Nordeste 43 Nordeste 1 -- -- 99
2021-01-08 02:00:00 12 23 Nordeste 41 Nordeste 0.8 -- -- 99
2021-01-08 01:00:00 12.1 23 Nordeste 48 Nordeste 0.6 -- -- 99
2021-01-08 00:00:00 12.3 29 Nordeste 47 Nordeste 2.2 -- -- 100
2021-01-07 23:00:00 12.2 28 Nordeste 44 Nordeste 4.8 -- -- 100
2021-01-07 22:00:00 12.1 26 Nordeste 40 Nordeste 6.8 -- -- 99
2021-01-07 21:00:00 12.3 26 Nordeste 44 Este 2.2 -- -- 98
2021-01-07 20:00:00 12.5 22 Nordeste 41 Nordeste 0.4 -- -- 98
2021-01-07 19:00:00 12.2 24 Nordeste 36 Nordeste 1.2 -- -- 98
2021-01-07 18:00:00 12.3 21 Nordeste 37 Nordeste 0.4 -- -- 98
2021-01-07 17:00:00 12.2 23 Nordeste 39 Nordeste 0 -- -- 98
2021-01-07 16:00:00 11.8 24 Nordeste 40 Nordeste 0.2 -- -- 99
2021-01-07 15:00:00 11.6 24 Nordeste 37 Nordeste 0.2 -- -- 100
2021-01-07 14:00:00 11.5 22 Nordeste 39 Nordeste 0.4 -- -- 100
2021-01-07 13:00:00 11.6 25 Nordeste 42 Nordeste 1.6 -- -- 100
2021-01-07 12:00:00 11.7 22 Nordeste 42 Nordeste 1.2 -- -- 100
2021-01-07 11:00:00 11.5 22 Nordeste 40 Nordeste 0.8 -- -- 100
2021-01-07 10:00:00 11.4 21 Nordeste 41 Nordeste 0.4 -- -- 100
2021-01-07 09:00:00 10.9 18 Nordeste 35 Nordeste 1.2 -- -- 99
2021-01-07 08:00:00 11.1 22 Nordeste 43 Nordeste 2 -- -- 99
2021-01-07 07:00:00 11.1 23 Nordeste 44 Nordeste 1.8 -- -- 98
2021-01-07 06:00:00 11.2 24 Nordeste 45 Este 1.4 -- -- 97
2021-01-07 05:00:00 11 23 Nordeste 47 Nordeste 0.4 -- -- 96
2021-01-07 04:00:00 11 24 Nordeste 47 Nordeste 0.6 -- -- 95
2021-01-07 03:00:00 11.2 26 Nordeste 48 Nordeste 0 -- -- 93
2021-01-07 02:00:00 10.8 26 Nordeste 55 Nordeste 0.8 -- -- 95
2021-01-07 01:00:00 11 33 Nordeste 57 Nordeste 3.2 -- -- 97
2021-01-07 00:00:00 11.5 31 Nordeste 53 Este 4.4 -- -- 97
2021-01-06 23:00:00 12 28 Este 50 Este 2.2 -- -- 97
2021-01-06 22:00:00 12.1 26 Este 58 Este 3.4 -- -- 97
2021-01-06 21:00:00 12.4 25 Este 60 Este 4.6 -- -- 98
2021-01-06 20:00:00 12 22 Este 54 Nordeste 4.6 -- -- 98
2021-01-06 19:00:00 11.3 22 Nordeste 40 Nordeste 4.4 -- -- 98
2021-01-06 18:00:00 10.9 22 Nordeste 39 Nordeste 4 -- -- 97
2021-01-06 17:00:00 12.1 19 Nordeste 37 Este 1.6 -- -- 91
2021-01-06 16:00:00 12.4 17 Nordeste 49 Este 0.2 -- -- 91
2021-01-06 15:00:00 12.4 35 Este 51 Este 0.2 -- -- 90
2021-01-06 14:00:00 12.7 23 Este 42 Este 0 -- -- 87
2021-01-06 13:00:00 13.2 13 Este 43 Este 0 -- -- 86
2021-01-06 12:00:00 13.1 23 Este 40 Este 0 -- -- 86
2021-01-06 11:00:00 12.9 10 Nordeste 31 Este 0 -- -- 83
2021-01-06 10:00:00 12.1 10 Nordeste 25 Nordeste 0 -- -- 86
2021-01-06 09:00:00 11.8 16 Nordeste 31 Nordeste 0 -- -- 86
2021-01-06 08:00:00 11.6 15 Nordeste 25 Nordeste 0 -- -- 86
2021-01-06 07:00:00 11.6 13 Nordeste 27 Nordeste 0 -- -- 87
2021-01-06 06:00:00 11 13 Nordeste 21 Nordeste 0 -- -- 91
2021-01-06 05:00:00 10.6 13 Nordeste 23 Nordeste 0 -- -- 94
2021-01-06 04:00:00 10.2 4 Noroeste 17 Nordeste 0 -- -- 94
2021-01-06 03:00:00 10.5 12 Nordeste 20 Nordeste 0.2 -- -- 94
2021-01-06 02:00:00 11 12 Nordeste 22 Sudeste 0 -- -- 88
2021-01-06 01:00:00 11.9 17 Sudeste 27 Sudeste 0 -- -- 81
2021-01-06 00:00:00 11.7 18 Sudeste 29 Sudeste 0 -- -- 83
2021-01-05 23:00:00 11.8 19 Este 33 Este 0 -- -- 83
2021-01-05 22:00:00 12 22 Sudeste 30 Sudeste 0.4 -- -- 84
2021-01-05 21:00:00 12.3 26 Sudeste 32 Sudeste 0.4 -- -- 79
2021-01-05 20:00:00 12.9 9 Este 18 Este 0 -- -- 74
2021-01-05 19:00:00 12.7 12 Este 23 Este 0 -- -- 71
2021-01-05 18:00:00 12.7 13 Este 19 Este 0 -- -- 73
2021-01-05 17:00:00 12.9 5 Este 13 Este 0 -- -- 73
2021-01-05 16:00:00 13.1 7 Este 9 Este 0 -- -- 69
2021-01-05 15:00:00 13.4 3 Nordeste 6 Nordeste 0 -- -- 68
2021-01-05 14:00:00 12.8 3 Nordeste 5 Nordeste 0 -- -- 69
2021-01-05 13:00:00 11.9 0 Calma 12 Noroeste 0 -- -- 74
2021-01-05 12:00:00 9.8 9 Noroeste 15 Norte 0 -- -- 81
2021-01-05 11:00:00 8.2 11 Noroeste 20 Norte 0 -- -- 86
2021-01-05 10:00:00 7.3 11 Noroeste 17 Noroeste 0 -- -- 88
2021-01-05 09:00:00 7.3 10 Noroeste 18 Noroeste 0 -- -- 83
2021-01-05 08:00:00 6.8 10 Noroeste 16 Noroeste 0 -- -- 83
2021-01-05 07:00:00 6.5 10 Noroeste 14 Noroeste 0 -- -- 86
2021-01-05 06:00:00 6 6 Noroeste 10 Noroeste 0 -- -- 86
2021-01-05 05:00:00 5.9 5 Norte 9 Noroeste 0 -- -- 86
2021-01-05 04:00:00 6 7 Noroeste 10 Norte 0 -- -- 83
2021-01-05 03:00:00 5.5 9 Noroeste 21 Noroeste 0 -- -- 86
2021-01-05 02:00:00 4.9 13 Noroeste 18 Noroeste 0 -- -- 88
2021-01-05 01:00:00 5.3 12 Noroeste 17 Noroeste 0 -- -- 87
2021-01-05 00:00:00 5.6 10 Noroeste 16 Noroeste 0 -- -- 85
2021-01-04 23:00:00 6 9 Noroeste 12 Noroeste 0 -- -- 84
2021-01-04 22:00:00 7.1 6 Noroeste 10 Noroeste 0 -- -- 80
2021-01-04 21:00:00 7.3 6 Noroeste 12 Oeste 0 -- -- 76
2021-01-04 20:00:00 7.4 11 Oeste 14 Oeste 0 -- -- 71
2021-01-04 19:00:00 9.2 8 Oeste 13 Oeste 0 -- -- 64
2021-01-04 18:00:00 13 7 Oeste 20 Oeste 0 -- -- 54
2021-01-04 17:00:00 14.2 11 Oeste 28 Oeste 0 -- -- 50
2021-01-04 16:00:00 14.4 19 Oeste 34 Oeste 0 -- -- 49
2021-01-04 15:00:00 14.4 22 Oeste 34 Oeste 0 -- -- 49
2021-01-04 14:00:00 14.3 16 Oeste 36 Oeste 0 -- -- 52
2021-01-04 13:00:00 14.1 21 Oeste 34 Sudoeste 0 -- -- 55
2021-01-04 12:00:00 12.4 9 Oeste 19 Oeste 0 -- -- 66
2021-01-04 11:00:00 8.4 4 Norte 10 Norte 0 -- -- 79
2021-01-04 10:00:00 4.9 8 Norte 14 Noroeste 0 -- -- 89
2021-01-04 09:00:00 2.5 10 Noroeste 14 Noroeste 0 -- -- 92
2021-01-04 08:00:00 2.8 10 Noroeste 13 Noroeste 0 -- -- 90
2021-01-04 07:00:00 3.3 10 Noroeste 13 Oeste 0 -- -- 89
2021-01-04 06:00:00 3.2 8 Noroeste 12 Noroeste 0 -- -- 90
2021-01-04 05:00:00 3.5 8 Noroeste 12 Noroeste 0 -- -- 88
2021-01-04 04:00:00 3.2 8 Noroeste 12 Noroeste 0 -- -- 87
2021-01-04 03:00:00 4.2 9 Noroeste 17 Noroeste 0 -- -- 84
2021-01-04 02:00:00 3.4 8 Noroeste 10 Noroeste 0 -- -- 85
2021-01-04 01:00:00 3.3 4 Norte 8 Norte 0 -- -- 80
2021-01-04 00:00:00 4.9 5 Norte 11 Oeste 0 -- -- 74
2021-01-03 23:00:00 6.4 6 Oeste 17 Noroeste 0 -- -- 67
2021-01-03 22:00:00 5.3 10 Oeste 15 Oeste 0 -- -- 68
2021-01-03 21:00:00 7.6 0 Calma 23 Oeste 0 -- -- 61
2021-01-03 20:00:00 8.8 18 Oeste 26 Oeste 0 -- -- 57
2021-01-03 19:00:00 9.1 10 Oeste 15 Oeste 0 -- -- 53
2021-01-03 18:00:00 12 9 Oeste 26 Oeste 0 -- -- 44
2021-01-03 17:00:00 13.5 19 Oeste 30 Oeste 0 -- -- 39
2021-01-03 16:00:00 14.2 18 Oeste 32 Oeste 0 -- -- 39
2021-01-03 15:00:00 14.3 16 Oeste 31 Noroeste 0 -- -- 42
2021-01-03 14:00:00 13.8 17 Noroeste 31 Oeste 0 -- -- 39
2021-01-03 13:00:00 13.1 10 Noroeste 26 Noroeste 0 -- -- 44
2021-01-03 12:00:00 11.4 11 Oeste 22 Oeste 0 -- -- 51
2021-01-03 11:00:00 9.2 12 Noroeste 26 Oeste 0 -- -- 65
2021-01-03 10:00:00 6.6 19 Oeste 26 Oeste 0 -- -- 71
2021-01-03 09:00:00 3.9 11 Oeste 21 Oeste 0 -- -- 78
2021-01-03 08:00:00 3.2 11 Oeste 15 Oeste 0 -- -- 82
2021-01-03 07:00:00 3 9 Noroeste 13 Noroeste 0 -- -- 85
2021-01-03 06:00:00 2.2 5 Noroeste 9 Norte 0 -- -- 89
2021-01-03 05:00:00 2.7 3 Norte 10 Norte 0 -- -- 87
2021-01-03 04:00:00 2.9 4 Noroeste 12 Noroeste 0 -- -- 87
2021-01-03 03:00:00 3.7 6 Noroeste 10 Noroeste 0 -- -- 87
2021-01-03 02:00:00 4.3 7 Noroeste 12 Oeste 0 -- -- 87
2021-01-03 01:00:00 4.7 8 Noroeste 11 Noroeste 0 -- -- 88
2021-01-03 00:00:00 4.4 4 Norte 10 Oeste 0 -- -- 87
2021-01-02 23:00:00 4.5 4 Sudoeste 10 Sudoeste 0 -- -- 83
2021-01-02 22:00:00 4.9 9 Oeste 11 Oeste 0 -- -- 77
2021-01-02 21:00:00 6.7 0 Calma 14 Oeste 0 -- -- 73
2021-01-02 20:00:00 6.7 9 Oeste 15 Oeste 0 -- -- 71
2021-01-02 19:00:00 8.3 10 Oeste 15 Oeste 0 -- -- 64
2021-01-02 18:00:00 11.8 5 Oeste 37 Oeste 0 -- -- 52
2021-01-02 17:00:00 12.8 22 Oeste 34 Oeste 0 -- -- 49
2021-01-02 16:00:00 13.6 21 Oeste 37 Oeste 0 -- -- 46
2021-01-02 15:00:00 13.5 22 Oeste 33 Oeste 0 -- -- 51
2021-01-02 14:00:00 13.2 17 Oeste 29 Oeste 0 -- -- 56